Bookmark and Share
Track history (hours):
 

MOL Modern

Last reported at 2014-Apr-22 23:12 UTC. Time now 2014-Apr-24 00:19 UTC.
Position N 22°20' E 114°07'.

Length 302 m; draft 12.5 m.

Type: Ship (hazmat cat A). MMSI: 538004203.

NotesDate/timePositionNaut miles runAvg speedWind from/ knotsBaromVisibWave heightAir tempDewpointWater temp
2014-Apr-22 23:12N 22°20' E 114°07'3 3.9
2014-Apr-22 22:33N 22°18' E 114°06'10 9.4
2014-Apr-22 21:33N 22°11' E 114°12'152 3.0
2014-Apr-20 18:21N 22°50' E 116°51'1113.8
2014-Apr-20 17:34N 22°57' E 117°00'  
2014-Apr-17 11:30N 31°52' E 132°20'7510.2
2014-Apr-17 04:11N 32°35' E 133°32'10311.5
2014-Apr-16 19:14N 33°52' E 134°53'811.9
2014-Apr-16 18:32N 34°00' E 134°55'1212.7
2014-Apr-16 17:33N 34°13' E 134°58'1514.4
2014-Apr-16 16:33N 34°26' E 135°05'1615.5
2014-Apr-16 15:33N 34°39' E 135°16'1 1.4
2014-Apr-16 14:30N 34°39' E 135°15'0 0.0
2014-Apr-16 13:24N 34°39' E 135°15'0 0.0
2014-Apr-16 12:30N 34°39' E 135°15'0 0.0
2014-Apr-16 11:30N 34°39' E 135°15'0 0.0
2014-Apr-16 10:30N 34°39' E 135°15'0 0.0
2014-Apr-16 09:24N 34°39' E 135°15'0 0.0
2014-Apr-16 08:33N 34°39' E 135°15'6 5.8
2014-Apr-16 07:33N 34°34' E 135°15'1717.5
2014-Apr-16 06:33N 34°20' E 135°02'1212.3
2014-Apr-16 05:33N 34°08' E 134°60'1514.3
2014-Apr-16 04:32N 33°54' E 134°59'23016.4
2014-Apr-15 14:31N 34°42' E 139°32'18 9.1
2014-Apr-15 12:34N 34°58' E 139°41'1515.2
2014-Apr-15 11:34N 35°13' E 139°46'1212.1
2014-Apr-15 10:34N 35°24' E 139°43'1111.0
2014-Apr-15 09:34N 35°35' E 139°48'2 1.9
2014-Apr-15 08:29N 35°36' E 139°46'0 0.0
2014-Apr-15 07:32N 35°36' E 139°46'0 0.0
2014-Apr-15 05:32N 35°36' E 139°46'0 0.0
2014-Apr-15 03:32N 35°36' E 139°46'0 0.0
2014-Apr-15 02:32N 35°36' E 139°46'0 0.0
2014-Apr-15 01:32N 35°36' E 139°46'0 0.0
2014-Apr-15 00:32N 35°36' E 139°46'0 0.0
2014-Apr-14 23:32N 35°36' E 139°46'0 0.0
2014-Apr-14 22:32N 35°36' E 139°46'0 0.1
2014-Apr-14 21:34N 35°36' E 139°46'8 8.3
2014-Apr-14 20:34N 35°30' E 139°52'1313.0
2014-Apr-14 19:34N 35°18' E 139°44'1110.6
2014-Apr-14 18:34N 35°08' E 139°46'1111.2
2014-Apr-14 17:34N 34°57' E 139°42'18 6.1
2014-Apr-14 14:33N 34°52' E 140°03'5613.9
2014-Apr-14 10:30N 35°28' E 140°56'  

Dump ship's entire track history

sailing weather and tide predictions

MOL Modern — V7VS6 — position and weather